Time;durP1;ratioP1;P1;durP2;ratioP2;P2;SDS_P1;SDS_P2;PMS_P1;PMS_P2;Temp;Humidity;BMP_temperature;BMP_pressure;BME280_temperature;BME280_humidity;BME280_pressure;Samples;Min_cycle;Max_cycle;Signal;HPM_P1;HPM_P2
2022/08/10 00:00:36;;;;;;;5.53;2.90;;;;;;;20.26;72.03;101507.22;8354121;28;20037;-49
2022/08/10 00:03:56;;;;;;;5.85;3.40;;;;;;;19.99;72.80;101510.38;8352385;28;20312;-50
2022/08/10 00:07:56;;;;;;;6.50;3.10;;;;;;;19.96;72.85;101512.63;8354595;28;21212;-48
2022/08/10 00:11:56;;;;;;;7.07;3.13;;;;;;;19.94;73.00;101509.22;8356288;28;20048;-51
2022/08/10 00:15:57;;;;;;;5.20;2.67;;;;;;;20.00;72.88;101503.00;8358660;28;20264;-51
2022/08/10 00:19:57;;;;;;;11.93;3.25;;;;;;;19.83;73.43;101496.72;8358266;28;20371;-48
2022/08/10 00:23:57;;;;;;;6.13;2.90;;;;;;;19.90;72.76;101499.59;8358146;28;20496;-49
2022/08/10 00:27:58;;;;;;;4.45;2.70;;;;;;;20.05;72.34;101495.06;8356993;28;20271;-48
2022/08/10 00:31:58;;;;;;;7.80;3.10;;;;;;;19.83;73.02;101493.09;8356956;28;20033;-49
2022/08/10 00:35:59;;;;;;;3.80;2.40;;;;;;;19.77;73.08;101488.31;8355679;28;20037;-48
2022/08/10 00:39:59;;;;;;;5.57;3.00;;;;;;;19.48;74.14;101482.59;8356961;28;20033;-50
2022/08/10 00:43:59;;;;;;;4.40;2.63;;;;;;;19.35;75.12;101481.22;8355252;28;20033;-48
2022/08/10 00:48:01;;;;;;;6.78;2.60;;;;;;;19.47;74.51;101484.47;8357588;28;20025;-51
2022/08/10 00:52:02;;;;;;;9.93;3.33;;;;;;;19.27;75.20;101467.50;8352581;28;20037;-48
2022/08/10 00:56:03;;;;;;;6.35;2.78;;;;;;;19.25;75.80;101469.53;8356004;28;20033;-48
2022/08/10 01:00:06;;;;;;;5.80;2.28;;;;;;;19.23;74.96;101474.34;8353808;28;20033;-48
2022/08/10 01:04:06;;;;;;;10.95;2.60;;;;;;;19.28;75.22;101474.69;8354180;28;20128;-50
2022/08/10 01:08:24;;;;;;;4.25;2.58;;;;;;;19.36;74.71;101461.00;8355764;28;20489;-47
2022/08/10 01:12:43;;;;;;;8.18;3.17;;;;;;;19.04;76.24;101474.72;8353879;28;20041;-47
2022/08/10 01:16:59;;;;;;;7.72;3.25;;;;;;;18.81;77.96;101459.97;8355044;28;20070;-47
2022/08/10 01:26:00;;;;;;;4.10;2.97;;;;;;;18.73;77.86;101457.22;8293415;28;20390;-47
2022/08/10 01:30:07;;;;;;;6.38;2.80;;;;;;;18.84;77.41;101458.75;8282394;28;20529;-47
2022/08/10 01:34:13;;;;;;;4.97;2.97;;;;;;;18.55;79.10;101456.53;8286772;28;20123;-47
2022/08/10 01:38:19;;;;;;;5.53;3.10;;;;;;;18.35;79.69;101457.81;8283922;28;20038;-50
2022/08/10 01:42:22;;;;;;;4.90;2.80;;;;;;;18.22;80.52;101451.97;8276095;28;20062;-49
2022/08/10 01:46:24;;;;;;;7.85;3.33;;;;;;;18.10;81.63;101447.84;8285173;28;20494;-49
2022/08/10 01:50:48;;;;;;;3.58;2.90;;;;;;;18.21;80.79;101455.72;8277891;28;20041;-47
2022/08/10 01:54:52;;;;;;;4.95;2.90;;;;;;;18.17;81.03;101459.00;8285843;28;20500;-47
2022/08/10 01:58:57;;;;;;;5.82;3.17;;;;;;;18.16;81.30;101449.91;8280672;28;20042;-47
2022/08/10 02:03:00;;;;;;;6.10;3.10;;;;;;;18.30;79.40;101465.66;8284773;28;20046;-49
2022/08/10 02:07:02;;;;;;;7.03;3.05;;;;;;;18.08;81.38;101457.25;8277838;28;20035;-48
2022/08/10 02:11:04;;;;;;;4.40;2.95;;;;;;;18.00;81.50;101471.75;8272028;28;20449;-47
2022/08/10 02:15:09;;;;;;;5.20;2.55;;;;;;;18.09;80.06;101464.44;8273661;28;20503;-49
2022/08/10 02:19:14;;;;;;;6.90;3.15;;;;;;;18.15;80.24;101467.38;8276319;28;20042;-47
2022/08/10 02:23:27;;;;;;;6.03;3.05;;;;;;;18.25;79.53;101470.81;8280352;28;20049;-47
2022/08/10 02:27:29;;;;;;;4.95;2.65;;;;;;;18.25;79.33;101465.34;8272580;28;20141;-48
2022/08/10 02:31:30;;;;;;;4.97;3.40;;;;;;;17.94;81.65;101466.06;8267849;28;20031;-47
2022/08/10 02:35:31;;;;;;;11.15;3.13;;;;;;;18.14;80.18;101460.16;8268298;28;20105;-47
2022/08/10 02:39:34;;;;;;;5.35;2.90;;;;;;;18.15;79.52;101459.16;8252921;28;20114;-49
2022/08/10 02:43:44;;;;;;;5.68;3.00;;;;;;;18.02;80.50;101458.75;8253963;28;20366;-47
2022/08/10 02:47:51;;;;;;;5.75;2.80;;;;;;;18.04;79.64;101469.53;8262741;28;20062;-47
2022/08/10 02:51:57;;;;;;;4.65;3.10;;;;;;;17.95;81.11;101465.91;8258650;28;20038;-47
2022/08/10 02:56:21;;;;;;;7.18;3.15;;;;;;;17.85;81.31;101458.84;8254143;28;20034;-47
2022/08/10 03:00:24;;;;;;;4.22;3.08;;;;;;;17.80;82.26;101467.56;8261228;28;20034;-47
2022/08/10 03:04:38;;;;;;;4.95;3.40;;;;;;;17.54;83.77;101461.28;8265962;28;20038;-49
2022/08/10 03:08:42;;;;;;;6.45;3.25;;;;;;;17.36;84.17;101468.66;8261197;28;20412;-47
2022/08/10 03:12:47;;;;;;;3.88;3.20;;;;;;;17.66;82.64;101459.09;8259414;28;20034;-47
2022/08/10 03:16:50;;;;;;;5.32;3.55;;;;;;;17.73;82.06;101461.03;8260840;28;20086;-47
2022/08/10 03:20:52;;;;;;;7.97;3.58;;;;;;;17.60;82.60;101456.00;8260395;28;20245;-50
2022/08/10 03:24:54;;;;;;;14.43;4.88;;;;;;;17.33;83.60;101458.03;8261115;28;20034;-50
2022/08/10 03:28:55;;;;;;;7.53;4.15;;;;;;;17.25;84.11;101463.44;8260765;28;20039;-48
2022/08/10 03:32:56;;;;;;;7.10;4.20;;;;;;;17.01;85.60;101468.72;8260763;28;20161;-48
2022/08/10 03:36:56;;;;;;;10.50;4.30;;;;;;;16.84;86.44;101461.41;8259484;28;20030;-47
2022/08/10 03:41:01;;;;;;;5.78;3.75;;;;;;;16.67;87.04;101454.97;8260535;28;20081;-47
2022/08/10 03:45:04;;;;;;;5.97;3.80;;;;;;;16.06;90.09;101453.06;8261121;28;20105;-47
2022/08/10 03:49:06;;;;;;;8.13;4.60;;;;;;;15.96;91.17;101452.28;8261148;28;20042;-47
2022/08/10 03:53:06;;;;;;;6.70;4.20;;;;;;;15.80;92.32;101452.97;8261535;28;20034;-47
2022/08/10 03:57:08;;;;;;;5.95;3.88;;;;;;;15.92;91.49;101453.59;8265511;28;20038;-46
2022/08/10 04:01:08;;;;;;;8.40;5.10;;;;;;;15.94;92.11;101459.75;8260699;28;20080;-48
2022/08/10 04:05:09;;;;;;;9.23;4.70;;;;;;;16.02;91.48;101455.25;8260152;28;20503;-50
2022/08/10 04:09:10;;;;;;;6.22;4.60;;;;;;;16.08;91.31;101456.50;8254794;28;20042;-47
2022/08/10 04:13:10;;;;;;;6.68;4.30;;;;;;;16.11;90.18;101457.06;8260755;28;20042;-50
2022/08/10 04:17:11;;;;;;;6.10;4.68;;;;;;;16.20;90.69;101455.28;8260673;28;20085;-49
2022/08/10 04:21:17;;;;;;;10.10;5.00;;;;;;;15.99;91.22;101462.88;8259382;28;20038;-47
2022/08/10 04:25:20;;;;;;;8.40;5.25;;;;;;;15.92;92.02;101464.50;8260721;28;20092;-49
2022/08/10 04:29:20;;;;;;;11.20;5.00;;;;;;;16.00;91.45;101470.03;8255575;28;20394;-48
2022/08/10 04:33:23;;;;;;;11.02;4.80;;;;;;;15.98;91.70;101472.09;8253859;28;20030;-47
2022/08/10 04:37:24;;;;;;;8.88;5.22;;;;;;;16.02;91.34;101465.31;8248725;28;20045;-47
2022/08/10 04:41:25;;;;;;;12.77;5.50;;;;;;;16.06;91.36;101469.44;8256195;28;20037;-47
2022/08/10 04:45:26;;;;;;;12.32;5.35;;;;;;;16.17;89.92;101471.97;8258932;28;20488;-47
2022/08/10 04:49:26;;;;;;;7.63;4.95;;;;;;;16.14;89.21;101467.69;8255036;28;22665;-47
2022/08/10 04:53:27;;;;;;;9.15;5.00;;;;;;;16.14;89.54;101472.28;8263030;28;20038;-48
2022/08/10 04:57:27;;;;;;;11.05;5.82;;;;;;;16.34;88.74;101474.72;8263602;28;20051;-47
2022/08/10 05:01:28;;;;;;;11.77;4.88;;;;;;;16.40;88.39;101478.69;8259166;28;20065;-47
2022/08/10 05:05:29;;;;;;;10.77;5.40;;;;;;;16.71;87.70;101488.28;8256983;28;20070;-48
2022/08/10 05:09:29;;;;;;;7.35;5.18;;;;;;;16.74;88.79;101487.97;8254927;28;20105;-47
2022/08/10 05:13:30;;;;;;;9.32;4.97;;;;;;;17.23;85.82;101485.47;8261361;28;20046;-49
2022/08/10 05:17:30;;;;;;;11.70;5.38;;;;;;;17.43;85.27;101480.69;8258334;28;20045;-48
2022/08/10 05:21:30;;;;;;;10.88;6.07;;;;;;;17.36;84.30;101490.53;8254864;28;20038;-48
2022/08/10 05:25:31;;;;;;;8.82;5.53;;;;;;;17.24;83.87;101491.78;8253113;28;20482;-50
2022/08/10 05:29:32;;;;;;;11.15;5.57;;;;;;;17.14;83.70;101501.97;8254151;28;20042;-48
2022/08/10 05:33:32;;;;;;;29.10;7.68;;;;;;;17.56;83.30;101495.63;8253142;28;20125;-49
2022/08/10 05:37:33;;;;;;;11.35;6.95;;;;;;;17.92;82.03;101493.59;8258868;28;20399;-50
2022/08/10 05:41:34;;;;;;;19.85;8.20;;;;;;;18.20;80.49;101495.06;8257760;28;20039;-48
2022/08/10 05:45:35;;;;;;;25.67;8.48;;;;;;;18.36;79.04;101497.03;8253816;28;19922;-48
2022/08/10 05:49:36;;;;;;;21.23;7.40;;;;;;;18.75;78.91;101493.53;8262695;28;20038;-51
2022/08/10 05:53:37;;;;;;;14.50;6.63;;;;;;;18.90;77.32;101491.84;8252331;28;20078;-47
2022/08/10 05:57:38;;;;;;;19.98;7.65;;;;;;;19.18;77.07;101495.06;8251424;28;20073;-47
2022/08/10 06:01:43;;;;;;;15.75;7.40;;;;;;;18.98;77.11;101504.69;8253677;28;20077;-50
2022/08/10 06:05:43;;;;;;;;;;;;;;;19.32;76.47;101500.78;8253421;28;20038;-50
2022/08/10 06:09:45;;;;;;;13.20;6.47;;;;;;;19.81;74.80;101503.41;8256327;28;19914;-51
2022/08/10 06:15:02;;;;;;;14.20;6.15;;;;;;;20.01;73.75;101497.34;8260028;28;20065;-49
2022/08/10 06:18:07;;;;;;;14.32;6.13;;;;;;;20.33;72.66;101504.59;8260007;28;20049;-48
2022/08/10 06:22:09;;;;;;;16.40;6.25;;;;;;;20.72;71.75;101510.88;8258899;28;20054;-47
2022/08/10 06:26:09;;;;;;;17.63;6.38;;;;;;;20.83;70.81;101503.06;8259559;28;20046;-50
2022/08/10 06:30:10;;;;;;;13.75;5.55;;;;;;;21.62;69.98;101502.56;8259493;28;20174;-48
2022/08/10 06:34:13;;;;;;;12.88;5.50;;;;;;;21.70;69.19;101502.47;8259202;28;20057;-47
2022/08/10 06:38:15;;;;;;;12.20;5.82;;;;;;;21.80;68.02;101502.25;8257684;28;20038;-47
2022/08/10 06:42:26;;;;;;;10.63;4.80;;;;;;;21.95;68.64;101503.94;8257760;28;20073;-48
2022/08/10 06:46:29;;;;;;;12.30;4.82;;;;;;;22.49;66.65;101498.94;8257628;28;20356;-47
2022/08/10 06:50:37;;;;;;;10.52;4.03;;;;;;;22.42;66.46;101507.09;8257149;28;20034;-47
2022/08/10 06:54:39;;;;;;;10.98;4.65;;;;;;;22.84;65.37;101498.94;8256487;28;20411;-48
2022/08/10 06:58:49;;;;;;;10.70;4.70;;;;;;;23.11;65.26;101506.44;8246039;28;20102;-47
2022/08/10 07:02:56;;;;;;;10.93;4.00;;;;;;;23.52;62.39;101508.50;8257055;28;20042;-47
2022/08/10 07:06:58;;;;;;;10.07;4.03;;;;;;;23.49;62.40;101503.38;8256295;28;20042;-51
2022/08/10 07:11:01;;;;;;;9.25;3.90;;;;;;;23.76;62.03;101505.31;8258825;28;20097;-49
2022/08/10 07:15:03;;;;;;;13.80;4.15;;;;;;;23.81;61.41;101502.75;8256065;28;20041;-48
2022/08/10 07:19:05;;;;;;;6.22;3.88;;;;;;;24.52;60.55;101508.69;8257981;28;20089;-52
2022/08/10 07:23:07;;;;;;;8.70;4.25;;;;;;;24.34;59.40;101507.56;8257983;28;20088;-48
2022/08/10 07:27:10;;;;;;;8.13;4.05;;;;;;;24.40;60.21;101509.53;8258042;28;20035;-48
2022/08/10 07:31:12;;;;;;;9.18;3.97;;;;;;;24.71;59.24;101507.09;8258247;28;20026;-48
2022/08/10 07:35:15;;;;;;;15.63;4.53;;;;;;;24.89;58.56;101513.75;8258435;28;20030;-52
2022/08/10 07:39:16;;;;;;;11.05;3.80;;;;;;;25.05;58.70;101509.72;8258286;28;20109;-49
2022/08/10 07:43:20;;;;;;;6.43;3.97;;;;;;;25.14;58.26;101519.53;8258211;28;20042;-49
2022/08/10 07:47:29;;;;;;;9.60;3.88;;;;;;;25.49;57.74;101515.53;8258283;28;20458;-48
2022/08/10 07:51:31;;;;;;;11.05;4.45;;;;;;;25.49;57.80;101507.22;8252415;28;20031;-49
2022/08/10 07:55:33;;;;;;;7.13;4.25;;;;;;;25.64;57.24;101515.34;8257823;28;20030;-49
2022/08/10 07:59:37;;;;;;;8.48;3.80;;;;;;;25.84;56.37;101522.56;8257614;28;20066;-50
2022/08/10 08:03:40;;;;;;;7.93;3.92;;;;;;;25.93;56.76;101518.50;8257361;28;20498;-52
2022/08/10 08:07:44;;;;;;;10.52;4.60;;;;;;;25.91;56.07;101519.75;8256952;28;20030;-52
2022/08/10 08:11:45;;;;;;;9.30;3.60;;;;;;;26.07;56.37;101519.34;8257651;28;20039;-52
2022/08/10 08:15:46;;;;;;;7.97;3.92;;;;;;;26.45;55.88;101510.03;8257865;28;20074;-49
2022/08/10 08:19:49;;;;;;;7.60;3.88;;;;;;;26.75;54.40;101516.72;8257271;28;20065;-48
2022/08/10 08:23:51;;;;;;;12.23;4.50;;;;;;;27.03;54.47;101523.81;8256309;28;20041;-50
2022/08/10 08:27:54;;;;;;;8.95;4.90;;;;;;;27.08;53.51;101522.06;8256953;28;20034;-50
2022/08/10 08:31:56;;;;;;;11.80;4.82;;;;;;;27.31;53.58;101527.06;8256230;28;20115;-48
2022/08/10 08:35:58;;;;;;;5.63;3.33;;;;;;;27.58;49.73;101517.44;8256463;28;20030;-50
2022/08/10 08:40:02;;;;;;;13.57;3.97;;;;;;;27.67;49.24;101510.53;8250329;28;20041;-48
2022/08/10 08:44:27;;;;;;;8.95;3.38;;;;;;;27.49;49.18;101508.56;8256111;28;20408;-49
2022/08/10 08:48:55;;;;;;;6.90;3.15;;;;;;;27.88;49.49;101510.13;8256152;28;20504;-49
2022/08/10 08:53:35;;;;;;;5.78;3.00;;;;;;;27.98;47.95;101507.66;8255489;28;20128;-49
2022/08/10 08:58:13;;;;;;;6.47;3.30;;;;;;;27.92;48.72;101497.47;8251917;28;20043;-49
2022/08/10 09:02:54;;;;;;;11.27;3.58;;;;;;;28.41;47.47;101489.81;8249898;28;20034;-48
2022/08/10 09:07:16;;;;;;;4.85;3.00;;;;;;;28.33;47.31;101483.75;8253548;28;20125;-52
2022/08/10 09:15:53;;;;;;;8.10;3.10;;;;;;;29.02;47.45;101492.41;8333365;27;20467;-49
2022/08/10 09:20:06;;;;;;;7.05;3.42;;;;;;;28.72;47.14;101477.66;8326982;28;20033;-48
2022/08/10 09:28:25;;;;;;;6.75;3.08;;;;;;;28.95;47.18;101471.31;8277868;28;20380;-48
2022/08/10 09:32:47;;;;;;;8.18;3.03;;;;;;;29.35;46.32;101477.97;8251697;28;20711;-52
2022/08/10 09:37:15;;;;;;;6.85;2.60;;;;;;;29.37;45.50;101476.66;8237737;28;20087;-49
2022/08/10 09:41:34;;;;;;;8.15;2.80;;;;;;;29.66;45.54;101470.16;8266994;28;20530;-49
2022/08/10 09:46:14;;;;;;;4.43;2.05;;;;;;;29.88;44.50;101462.88;8271570;28;20042;-49
2022/08/10 09:59:21;;;;;;;7.25;2.35;;;;;;;32.51;40.83;101459.84;8385986;27;20470;-47
2022/08/10 10:07:42;;;;;;;7.57;2.30;;;;;;;34.55;37.11;101458.16;8318021;27;20363;-48
2022/08/10 10:12:22;;;;;;;3.60;1.80;;;;;;;35.59;36.49;101436.94;8314458;28;20037;-48
2022/08/10 10:17:02;;;;;;;8.88;2.47;;;;;;;36.09;35.59;101428.38;8304726;28;20088;-50
2022/08/10 10:21:28;;;;;;;7.47;2.40;;;;;;;36.39;35.48;101436.75;8307983;28;20045;-51
2022/08/10 10:25:42;;;;;;;3.90;1.90;;;;;;;35.95;35.53;101432.94;8310791;28;20099;-50
2022/08/10 10:29:53;;;;;;;2.67;1.90;;;;;;;37.24;34.00;101421.28;8311026;28;20038;-48
2022/08/10 10:34:07;;;;;;;6.13;1.67;;;;;;;36.80;33.98;101418.50;8315051;28;20029;-51
2022/08/10 10:38:10;;;;;;;3.13;1.98;;;;;;;36.39;34.64;101417.03;8311420;28;20103;-48
2022/08/10 10:42:36;;;;;;;8.27;2.05;;;;;;;35.70;35.85;101407.63;8306357;28;20635;-51
2022/08/10 10:47:07;;;;;;;5.78;2.30;;;;;;;36.14;34.52;101408.66;8312370;28;20055;-48
2022/08/10 10:51:15;;;;;;;4.18;2.25;;;;;;;35.81;34.79;101398.06;8314792;28;20552;-48
2022/08/10 10:55:41;;;;;;;5.72;2.20;;;;;;;35.98;34.42;101404.19;8313307;28;20037;-49
2022/08/10 11:00:00;;;;;;;2.40;2.05;;;;;;;35.90;34.90;101393.53;8314082;28;20061;-51
2022/08/10 11:04:28;;;;;;;5.57;2.38;;;;;;;36.88;34.02;101392.50;8313358;28;20574;-49
2022/08/10 11:08:35;;;;;;;3.83;2.03;;;;;;;36.90;34.21;101383.75;8304326;28;20053;-52
2022/08/10 11:12:44;;;;;;;4.55;2.10;;;;;;;37.01;33.19;101380.53;8305711;28;20034;-51
2022/08/10 11:16:50;;;;;;;5.60;2.13;;;;;;;37.62;33.03;101371.53;8298105;28;20097;-49
2022/08/10 11:20:59;;;;;;;5.25;2.05;;;;;;;36.75;34.50;101381.03;8277391;28;20050;-50
2022/08/10 11:25:10;;;;;;;7.30;2.03;;;;;;;36.51;34.68;101365.94;8274328;28;20037;-51
2022/08/10 11:29:34;;;;;;;5.50;1.77;;;;;;;36.89;34.32;101365.97;8284365;28;20045;-50
2022/08/10 11:33:55;;;;;;;3.75;2.30;;;;;;;36.29;34.59;101359.88;8280807;28;20042;-52
2022/08/10 11:38:12;;;;;;;6.55;2.50;;;;;;;36.27;34.52;101360.13;8288157;28;20061;-49
2022/08/10 11:42:22;;;;;;;3.10;2.00;;;;;;;36.95;33.65;101353.50;8278343;28;20042;-50
2022/08/10 11:46:29;;;;;;;3.80;2.38;;;;;;;36.15;34.05;101342.72;8275314;28;20042;-51
2022/08/10 11:50:38;;;;;;;3.83;2.25;;;;;;;36.30;34.63;101337.03;8270324;28;20523;-50
2022/08/10 11:54:42;;;;;;;3.53;2.20;;;;;;;37.11;33.98;101340.13;8289222;28;20494;-49
2022/08/10 11:59:59;;;;;;;6.32;1.90;;;;;;;36.89;33.54;101339.72;8287629;28;20417;-53
2022/08/10 12:03:06;;;;;;;3.50;1.90;;;;;;;37.63;33.33;101333.66;8282256;28;20038;-52
2022/08/10 12:07:08;;;;;;;3.47;2.17;;;;;;;35.63;34.61;101329.13;8288884;28;20034;-52
2022/08/10 12:11:12;;;;;;;4.43;2.15;;;;;;;33.75;37.31;101316.25;8289176;28;20637;-52
2022/08/10 12:15:25;;;;;;;6.45;2.08;;;;;;;33.75;36.91;101304.16;8290079;28;20285;-51
2022/08/10 12:23:49;;;;;;;5.28;2.17;;;;;;;31.87;38.53;101295.53;8334655;27;20915;-49
2022/08/10 12:27:55;;;;;;;2.65;1.88;;;;;;;31.57;38.80;101289.53;8330911;28;20109;-50
2022/08/10 12:32:04;;;;;;;5.55;2.28;;;;;;;31.30;39.43;101288.59;8305238;28;20064;-48
2022/08/10 12:36:14;;;;;;;3.60;2.03;;;;;;;31.38;39.13;101285.34;8310524;28;20437;-48
2022/08/10 12:40:22;;;;;;;8.80;1.90;;;;;;;31.38;38.76;101268.59;8309489;28;20045;-48
2022/08/10 12:44:33;;;;;;;2.28;1.60;;;;;;;32.04;37.91;101268.28;8304754;28;20087;-49
2022/08/10 12:48:47;;;;;;;8.48;1.85;;;;;;;31.82;37.81;101270.28;8318063;28;20099;-50
2022/08/10 12:52:55;;;;;;;2.38;1.67;;;;;;;31.80;38.14;101266.88;8314849;28;20037;-49
2022/08/10 12:57:02;;;;;;;4.05;1.90;;;;;;;31.54;37.94;101267.69;8314508;28;20427;-48
2022/08/10 13:01:05;;;;;;;5.05;1.88;;;;;;;31.50;38.13;101266.50;8310756;28;20460;-52
2022/08/10 13:05:09;;;;;;;2.63;1.80;;;;;;;31.66;37.99;101265.59;8309877;28;20096;-52
2022/08/10 13:09:12;;;;;;;3.08;1.80;;;;;;;31.62;38.32;101247.66;8314610;28;20557;-52
2022/08/10 13:13:16;;;;;;;5.43;2.00;;;;;;;31.96;38.28;101254.78;8315177;28;20029;-52
2022/08/10 13:17:27;;;;;;;5.45;1.85;;;;;;;31.42;37.58;101247.38;8315224;28;20124;-49
2022/08/10 13:21:32;;;;;;;3.53;1.90;;;;;;;31.53;37.93;101238.03;8313353;28;20041;-50
2022/08/10 13:25:37;;;;;;;4.20;1.95;;;;;;;31.84;37.88;101223.31;8313635;28;20505;-50
2022/08/10 13:29:42;;;;;;;4.20;1.95;;;;;;;32.08;37.62;101221.91;8314310;28;20034;-53
2022/08/10 13:33:47;;;;;;;3.22;2.22;;;;;;;31.65;38.06;101224.75;8288329;28;20029;-49
2022/08/10 13:37:51;;;;;;;3.28;2.10;;;;;;;31.44;38.02;101211.63;8299138;28;20045;-53
2022/08/10 13:41:54;;;;;;;3.47;2.08;;;;;;;31.69;37.58;101211.94;8291465;28;20058;-53
2022/08/10 13:45:56;;;;;;;4.27;1.87;;;;;;;31.67;37.95;101205.75;8302665;28;20141;-52
2022/08/10 13:50:23;;;;;;;4.28;2.03;;;;;;;31.54;37.98;101206.16;8287349;28;20113;-51
2022/08/10 13:54:26;;;;;;;3.10;2.00;;;;;;;31.68;38.22;101199.88;8250259;28;20035;-50
2022/08/10 13:58:30;;;;;;;5.47;2.30;;;;;;;31.38;37.94;101195.91;8285715;28;20445;-50
2022/08/10 14:02:39;;;;;;;6.18;1.92;;;;;;;31.65;38.20;101191.19;8287287;28;20066;-50
2022/08/10 14:06:47;;;;;;;3.35;2.17;;;;;;;31.90;37.74;101194.28;8276633;28;20121;-54
2022/08/10 14:10:49;;;;;;;3.75;2.10;;;;;;;31.92;38.35;101180.84;8276668;28;20030;-49
2022/08/10 14:14:51;;;;;;;3.40;1.88;;;;;;;31.75;38.12;101175.34;8284606;28;20050;-49
2022/08/10 14:18:55;;;;;;;4.35;2.38;;;;;;;32.01;38.34;101168.09;8282993;28;20449;-52
2022/08/10 14:23:06;;;;;;;4.10;1.85;;;;;;;31.94;38.37;101171.13;8272132;28;20176;-49
2022/08/10 14:27:09;;;;;;;2.10;1.90;;;;;;;31.77;37.80;101155.50;8286117;28;20499;-49
2022/08/10 14:31:17;;;;;;;2.97;2.15;;;;;;;31.70;38.13;101166.91;8272279;28;20051;-50
2022/08/10 14:35:20;;;;;;;2.58;2.17;;;;;;;31.64;38.40;101162.38;8268592;28;20122;-49
2022/08/10 14:39:23;;;;;;;;;;;;;;;31.84;38.29;101165.41;8288473;28;20041;-50
2022/08/10 14:43:31;;;;;;;4.22;2.45;;;;;;;31.71;38.15;101162.19;8273604;28;20389;-49
2022/08/10 14:47:37;;;;;;;3.72;2.20;;;;;;;31.62;38.02;101153.38;8267923;28;20088;-48
2022/08/10 14:51:42;;;;;;;3.53;2.10;;;;;;;31.80;38.61;101149.38;8280221;28;20552;-48
2022/08/10 14:55:55;;;;;;;3.55;2.42;;;;;;;31.79;38.11;101142.94;8274268;28;20045;-50
2022/08/10 14:59:57;;;;;;;4.97;2.17;;;;;;;31.94;38.02;101150.66;8270914;28;20040;-50
2022/08/10 15:04:05;;;;;;;2.25;2.03;;;;;;;32.12;38.31;101141.88;8279854;28;20050;-49
2022/08/10 15:08:07;;;;;;;5.47;2.42;;;;;;;31.83;38.52;101140.47;8271914;28;20065;-48
2022/08/10 15:12:08;;;;;;;3.55;2.22;;;;;;;31.77;38.62;101127.53;8267295;28;20484;-48
2022/08/10 15:16:10;;;;;;;6.18;2.35;;;;;;;31.71;38.53;101128.59;8276227;28;20358;-49
2022/08/10 15:20:22;;;;;;;3.88;1.98;;;;;;;31.61;38.77;101128.47;8288352;28;20394;-49
2022/08/10 15:25:26;;;;;;;7.93;2.40;;;;;;;31.43;38.85;101120.44;8269993;28;20058;-50
2022/08/10 15:28:49;;;;;;;1.90;1.65;;;;;;;31.68;38.80;101117.94;8273350;28;20088;-50
2022/08/10 15:37:13;;;;;;;5.33;2.23;;;;;;;31.87;38.29;101111.72;8277807;28;20107;-48
2022/08/10 15:41:16;;;;;;;3.53;2.17;;;;;;;31.84;38.63;101114.22;8282044;28;20137;-48
2022/08/10 15:45:17;;;;;;;;;;;;;;;31.78;38.86;101095.66;8268859;28;20046;-49
2022/08/10 15:49:26;;;;;;;2.92;2.63;;;;;;;31.86;38.56;101092.38;8292667;28;19971;-50
2022/08/10 15:53:31;;;;;;;4.88;2.00;;;;;;;31.75;39.10;101090.59;8306592;28;20084;-51
2022/08/10 15:57:38;;;;;;;2.63;2.35;;;;;;;31.80;39.38;101088.69;8285004;28;20088;-50
2022/08/10 16:01:47;;;;;;;5.68;2.35;;;;;;;31.74;38.89;101095.34;8273705;28;20069;-50
2022/08/10 16:05:50;;;;;;;3.08;2.40;;;;;;;31.63;39.09;101092.72;8285591;28;20353;-52
2022/08/10 16:09:57;;;;;;;4.95;2.60;;;;;;;31.60;39.34;101084.84;8274303;28;20125;-50
2022/08/10 16:13:58;;;;;;;7.47;2.58;;;;;;;31.77;39.38;101077.16;8275672;28;20157;-49
2022/08/10 16:18:03;;;;;;;6.47;2.63;;;;;;;31.68;39.86;101087.19;8275981;28;20045;-52
2022/08/10 16:22:07;;;;;;;6.55;2.67;;;;;;;31.94;39.97;101089.13;8264068;28;20050;-55
2022/08/10 16:26:11;;;;;;;25.85;4.05;;;;;;;31.61;40.07;101076.19;8274462;28;20167;-53
2022/08/10 16:30:12;;;;;;;5.10;2.70;;;;;;;31.49;40.70;101080.25;8268432;28;20058;-53
2022/08/10 16:34:15;;;;;;;25.38;3.65;;;;;;;31.70;40.57;101059.78;8283884;28;20034;-55
2022/08/10 16:38:19;;;;;;;13.87;2.63;;;;;;;31.84;39.21;101075.03;8283228;28;20054;-52
2022/08/10 16:42:23;;;;;;;6.50;2.67;;;;;;;31.76;39.26;101067.09;8278007;28;20034;-55
2022/08/10 16:46:24;;;;;;;5.15;2.63;;;;;;;31.62;39.32;101060.28;8280637;28;20102;-54
2022/08/10 16:50:29;;;;;;;4.22;2.25;;;;;;;31.49;39.51;101055.09;8281460;28;20037;-52
2022/08/10 16:54:31;;;;;;;3.42;2.58;;;;;;;31.42;40.13;101062.84;8275722;28;20045;-53
2022/08/10 16:58:35;;;;;;;11.52;2.78;;;;;;;31.42;41.24;101068.44;8283556;28;20041;-55
2022/08/10 17:02:39;;;;;;;2.85;2.55;;;;;;;31.33;41.17;101065.28;8265489;28;20121;-53
2022/08/10 17:06:57;;;;;;;6.05;2.38;;;;;;;31.25;41.06;101062.09;8285844;28;20049;-54
2022/08/10 17:10:59;;;;;;;3.80;2.10;;;;;;;31.28;41.30;101065.22;8291620;28;20386;-52
2022/08/10 17:15:05;;;;;;;5.50;1.95;;;;;;;31.17;41.20;101066.22;8290963;28;20038;-54
2022/08/10 17:19:11;;;;;;;3.13;2.10;;;;;;;31.20;41.21;101059.25;8290953;28;20042;-54
2022/08/10 17:23:13;;;;;;;3.00;2.30;;;;;;;31.12;41.72;101054.97;8286886;28;20034;-55
2022/08/10 17:27:16;;;;;;;3.42;2.30;;;;;;;31.10;41.33;101053.53;8298365;28;20041;-51
2022/08/10 17:31:22;;;;;;;7.40;2.75;;;;;;;31.05;41.77;101056.28;8295502;28;20035;-54
2022/08/10 17:35:26;;;;;;;4.07;2.00;;;;;;;30.92;41.20;101056.69;8294457;28;20061;-54
2022/08/10 17:39:32;;;;;;;4.22;2.05;;;;;;;30.79;41.25;101057.91;8290414;28;20053;-53
2022/08/10 17:43:35;;;;;;;3.53;2.10;;;;;;;30.73;41.56;101052.50;8284326;28;20107;-54
2022/08/10 17:47:35;;;;;;;10.38;2.45;;;;;;;30.70;41.46;101047.44;8287469;28;20042;-54
2022/08/10 17:51:38;;;;;;;5.85;2.00;;;;;;;30.58;41.30;101049.50;8290571;28;20033;-52
2022/08/10 17:55:43;;;;;;;3.80;1.80;;;;;;;30.48;41.61;101052.13;8291610;28;20042;-53
2022/08/10 17:59:45;;;;;;;3.20;2.13;;;;;;;30.35;41.96;101051.41;8290892;28;20037;-51
2022/08/10 18:03:52;;;;;;;6.72;1.90;;;;;;;30.29;41.69;101052.47;8286441;28;20038;-55
2022/08/10 18:07:55;;;;;;;2.30;1.77;;;;;;;30.17;41.88;101060.06;8281698;28;20034;-51
2022/08/10 18:12:00;;;;;;;5.18;1.83;;;;;;;30.08;42.41;101061.59;8288040;28;20041;-54
2022/08/10 18:16:04;;;;;;;3.55;2.25;;;;;;;29.96;42.29;101051.59;8288051;28;20037;-54
2022/08/10 18:20:06;;;;;;;;;;;;;;;29.89;42.09;101048.97;8287184;28;20033;-51
2022/08/10 18:24:15;;;;;;;3.58;2.08;;;;;;;29.83;42.17;101063.13;8286317;28;20270;-51
2022/08/10 18:28:18;;;;;;;5.53;1.75;;;;;;;29.72;42.19;101062.09;8288012;28;20042;-54
2022/08/10 18:32:23;;;;;;;2.65;1.50;;;;;;;29.60;42.41;101064.06;8287535;28;20041;-54
2022/08/10 18:36:24;;;;;;;7.85;1.80;;;;;;;29.54;42.40;101067.00;8287537;28;20142;-51
2022/08/10 18:40:25;;;;;;;4.07;1.63;;;;;;;29.45;42.54;101066.59;8281040;28;20056;-51
2022/08/10 18:44:32;;;;;;;2.88;1.75;;;;;;;29.33;42.80;101067.75;8281786;28;20046;-53
2022/08/10 18:48:58;;;;;;;3.72;1.70;;;;;;;29.16;43.27;101078.84;8288498;28;20404;-54
2022/08/10 18:53:03;;;;;;;2.17;1.40;;;;;;;29.05;43.63;101076.94;8285596;28;20030;-54
2022/08/10 18:57:16;;;;;;;2.30;2.00;;;;;;;28.89;44.09;101083.28;8280856;28;20494;-55
2022/08/10 19:05:57;;;;;;;4.18;2.08;;;;;;;28.62;44.43;101082.13;8395295;27;20387;-53
2022/08/10 19:14:22;;;;;;;5.38;1.80;;;;;;;28.39;44.67;101082.13;8419249;27;20449;-53
2022/08/10 19:18:33;;;;;;;4.60;2.03;;;;;;;28.24;45.02;101087.34;8430929;27;20032;-54
2022/08/10 19:23:01;;;;;;;5.60;1.67;;;;;;;28.16;45.20;101087.69;8425030;27;20039;-55
2022/08/10 19:27:16;;;;;;;4.15;1.77;;;;;;;28.02;45.97;101091.78;8414201;27;20418;-55
2022/08/10 19:35:44;;;;;;;2.95;1.55;;;;;;;27.90;46.06;101093.72;8316316;28;20401;-53
2022/08/10 19:44:34;;;;;;;4.50;1.73;;;;;;;27.69;46.09;101099.81;8416271;27;20426;-53
2022/08/10 19:49:02;;;;;;;4.07;1.88;;;;;;;27.61;46.66;101111.25;8366857;28;20044;-52
2022/08/10 19:53:25;;;;;;;3.28;1.90;;;;;;;27.53;46.41;101109.66;8376862;28;20044;-56
2022/08/10 19:57:43;;;;;;;4.30;1.90;;;;;;;27.44;46.82;101110.25;8403905;28;20119;-53